createdAt,value
2017-08-18T00:00:51.002Z,0
2017-08-18T00:01:51.496Z,0
2017-08-18T00:02:51.872Z,0
2017-08-18T00:03:51.593Z,0
2017-08-18T00:04:51.486Z,0
2017-08-18T00:05:51.191Z,0
2017-08-18T00:06:51.462Z,0
2017-08-18T00:07:51.747Z,0
2017-08-18T00:08:51.424Z,0
2017-08-18T00:09:51.403Z,0
2017-08-18T00:10:51.073Z,0
2017-08-18T00:11:51.098Z,0
2017-08-18T00:12:50.740Z,0
2017-08-18T00:13:51.093Z,0
2017-08-18T00:14:50.993Z,0
2017-08-18T00:15:51.741Z,0
2017-08-18T00:16:50.981Z,0
2017-08-18T00:17:50.948Z,0
2017-08-18T00:18:51.268Z,0
2017-08-18T00:19:51.335Z,0
2017-08-18T00:20:50.623Z,0
2017-08-18T00:21:51.243Z,0
2017-08-18T00:22:50.881Z,0
2017-08-18T00:23:50.862Z,0
2017-08-18T00:24:51.550Z,0
2017-08-18T00:25:50.861Z,0
2017-08-18T00:26:51.158Z,0
2017-08-18T00:27:50.507Z,0
2017-08-18T00:28:51.111Z,0
2017-08-18T00:29:50.474Z,0
2017-08-18T00:30:50.779Z,0
2017-08-18T00:31:50.770Z,0
2017-08-18T00:32:50.829Z,0
2017-08-18T00:33:50.411Z,0
2017-08-18T00:34:50.755Z,0
2017-08-18T00:35:50.702Z,0
2017-08-18T00:36:50.790Z,0
2017-08-18T00:37:51.211Z,0
2017-08-18T00:38:50.704Z,0
2017-08-18T00:39:50.656Z,0
2017-08-18T00:40:51.246Z,0
2017-08-18T00:41:49.998Z,0
2017-08-18T00:42:50.911Z,0
2017-08-18T00:43:50.881Z,0
2017-08-18T00:44:50.900Z,0
2017-08-18T00:45:50.569Z,0
2017-08-18T00:46:50.791Z,0
2017-08-18T00:47:50.853Z,0
2017-08-18T00:48:51.158Z,0
2017-08-18T00:49:50.951Z,0
2017-08-18T00:50:50.174Z,0
2017-08-18T00:51:50.789Z,0
2017-08-18T00:52:50.766Z,0
2017-08-18T00:53:50.755Z,0
2017-08-18T00:54:50.763Z,0
2017-08-18T00:55:50.421Z,0
2017-08-18T00:56:50.415Z,0
2017-08-18T00:57:50.512Z,0
2017-08-18T00:58:50.085Z,0
2017-08-18T00:59:50.381Z,0
2017-08-18T01:00:50.357Z,0
2017-08-18T01:01:50.643Z,0
2017-08-18T01:02:50.927Z,0
2017-08-18T01:03:50.311Z,0
2017-08-18T01:04:50.601Z,0
2017-08-18T01:05:50.589Z,0
2017-08-18T01:06:50.590Z,0
2017-08-18T01:07:50.548Z,0
2017-08-18T01:08:50.544Z,0
2017-08-18T01:09:50.521Z,0
2017-08-18T01:10:50.499Z,0
2017-08-18T01:11:50.546Z,0
2017-08-18T01:12:50.492Z,0
2017-08-18T01:13:49.881Z,0
2017-08-18T01:14:50.514Z,0
2017-08-18T01:15:50.512Z,0
2017-08-18T01:16:50.136Z,0
2017-08-18T01:17:50.424Z,0
2017-08-18T01:18:50.413Z,0
2017-08-18T01:19:50.080Z,0
2017-08-18T01:20:50.426Z,0
2017-08-18T01:21:50.354Z,0
2017-08-18T01:22:50.647Z,0
2017-08-18T01:23:50.630Z,0
2017-08-18T01:24:50.000Z,0
2017-08-18T01:25:50.611Z,0
2017-08-18T01:26:50.610Z,0
2017-08-18T01:27:50.283Z,0
2017-08-18T01:28:50.556Z,0
2017-08-18T01:29:50.552Z,0
2017-08-18T01:30:50.551Z,0
2017-08-18T01:31:50.512Z,0
2017-08-18T01:32:50.513Z,0
2017-08-18T01:33:50.525Z,0
2017-08-18T01:34:50.508Z,0
2017-08-18T01:35:50.161Z,0
2017-08-18T01:36:50.502Z,0
2017-08-18T01:37:50.133Z,0
2017-08-18T01:38:50.501Z,0
2017-08-18T01:39:50.429Z,0
2017-08-18T01:40:50.452Z,0
2017-08-18T01:41:49.509Z,0
2017-08-18T01:42:50.450Z,0
2017-08-18T01:43:49.430Z,0
2017-08-18T01:44:49.811Z,0
2017-08-18T01:45:50.330Z,0
2017-08-18T01:46:49.692Z,0
2017-08-18T01:47:50.016Z,0
2017-08-18T01:48:49.672Z,0
2017-08-18T01:49:50.014Z,0
2017-08-18T01:50:50.285Z,0
2017-08-18T01:51:50.340Z,0
2017-08-18T01:52:50.330Z,0
2017-08-18T01:53:49.892Z,0
2017-08-18T01:54:49.280Z,0
2017-08-18T01:55:49.264Z,0
2017-08-18T01:56:49.531Z,0
2017-08-18T01:57:48.920Z,0
2017-08-18T01:58:49.502Z,0
2017-08-18T01:59:50.182Z,0
2017-08-18T02:00:49.842Z,0
2017-08-18T02:01:50.131Z,0
2017-08-18T02:02:49.149Z,0
2017-08-18T02:03:50.098Z,0
2017-08-18T02:04:49.194Z,0
2017-08-18T02:05:50.141Z,0
2017-08-18T02:06:49.400Z,0
2017-08-18T02:07:50.008Z,0
2017-08-18T02:08:49.972Z,0
2017-08-18T02:09:49.359Z,0
2017-08-18T02:10:49.951Z,0
2017-08-18T02:11:49.057Z,0
2017-08-18T02:12:49.914Z,0
2017-08-18T02:13:49.366Z,0
2017-08-18T02:14:48.972Z,0
2017-08-18T02:15:49.928Z,0
2017-08-18T02:16:49.248Z,0
2017-08-18T02:17:49.252Z,0
2017-08-18T02:18:49.203Z,0
2017-08-18T02:19:49.251Z,0
2017-08-18T02:20:49.503Z,0
2017-08-18T02:21:49.486Z,0
2017-08-18T02:22:49.772Z,0
2017-08-18T02:23:49.483Z,0
2017-08-18T02:24:49.463Z,0
2017-08-18T02:25:49.413Z,0
2017-08-18T02:26:49.412Z,0
2017-08-18T02:27:49.740Z,0
2017-08-18T02:28:49.396Z,0
2017-08-18T02:29:49.669Z,0
2017-08-18T02:30:49.075Z,0
2017-08-18T02:31:49.646Z,0
2017-08-18T02:32:48.730Z,0
2017-08-18T02:33:49.072Z,0
2017-08-18T02:34:48.675Z,0
2017-08-18T02:35:49.073Z,0
2017-08-18T02:36:49.376Z,0
2017-08-18T02:37:49.569Z,0
2017-08-18T02:38:49.549Z,0
2017-08-18T02:39:49.231Z,0
2017-08-18T02:40:49.210Z,0
2017-08-18T02:41:49.200Z,0
2017-08-18T02:42:49.200Z,0
2017-08-18T02:43:48.884Z,0
2017-08-18T02:44:49.487Z,0
2017-08-18T02:45:49.140Z,0
2017-08-18T02:46:49.235Z,0
2017-08-18T02:47:49.461Z,0
2017-08-18T02:48:49.410Z,0
2017-08-18T02:49:48.463Z,0
2017-08-18T02:50:49.073Z,0
2017-08-18T02:51:49.361Z,0
2017-08-18T02:52:48.835Z,0
2017-08-18T02:53:48.700Z,0
2017-08-18T02:54:49.297Z,0
2017-08-18T02:55:49.321Z,0
2017-08-18T02:56:49.000Z,0
2017-08-18T02:57:48.335Z,0
2017-08-18T02:58:48.339Z,0
2017-08-18T02:59:48.990Z,0
2017-08-18T03:00:48.321Z,0
2017-08-18T03:01:48.593Z,0
2017-08-18T03:02:48.618Z,0
2017-08-18T03:03:48.939Z,0
2017-08-18T03:04:49.158Z,0
2017-08-18T03:05:49.143Z,0
2017-08-18T03:06:48.215Z,0
2017-08-18T03:07:49.110Z,0
2017-08-18T03:08:49.118Z,0
2017-08-18T03:09:49.110Z,0
2017-08-18T03:10:48.790Z,0
2017-08-18T03:11:48.437Z,0
2017-08-18T03:12:48.456Z,0
2017-08-18T03:13:48.421Z,0
2017-08-18T03:14:49.011Z,0
2017-08-18T03:15:49.287Z,0
2017-08-18T03:16:48.414Z,0
2017-08-18T03:17:48.345Z,0
2017-08-18T03:18:49.048Z,0
2017-08-18T03:19:48.319Z,0
2017-08-18T03:20:48.030Z,0
2017-08-18T03:21:48.607Z,0
2017-08-18T03:22:48.727Z,0
2017-08-18T03:23:48.264Z,0
2017-08-18T03:24:48.243Z,0
2017-08-18T03:25:47.932Z,0
2017-08-18T03:26:48.267Z,0
2017-08-18T03:27:48.512Z,0
2017-08-18T03:28:48.596Z,0
2017-08-18T03:29:48.484Z,0
2017-08-18T03:30:48.576Z,0
2017-08-18T03:31:48.137Z,0
2017-08-18T03:32:48.154Z,0
2017-08-18T03:33:48.117Z,0
2017-08-18T03:34:48.196Z,0
2017-08-18T03:35:48.481Z,0
2017-08-18T03:36:48.905Z,0
2017-08-18T03:37:48.098Z,0
2017-08-18T03:38:48.079Z,0
2017-08-18T03:39:48.357Z,0
2017-08-18T03:40:48.040Z,0
2017-08-18T03:41:48.346Z,0
2017-08-18T03:42:47.993Z,0
2017-08-18T03:43:48.000Z,0
2017-08-18T03:44:48.289Z,0
2017-08-18T03:45:48.597Z,0
2017-08-18T03:46:48.222Z,0
2017-08-18T03:47:48.250Z,0
2017-08-18T03:48:48.400Z,0
2017-08-18T03:49:48.185Z,0
2017-08-18T03:50:48.357Z,0
2017-08-18T03:51:47.961Z,0
2017-08-18T03:52:48.426Z,0
2017-08-18T03:53:48.163Z,0
2017-08-18T03:54:47.794Z,0
2017-08-18T03:55:48.460Z,0
2017-08-18T03:56:47.764Z,0
2017-08-18T03:57:47.775Z,0
2017-08-18T03:58:48.041Z,0
2017-08-18T03:59:48.040Z,0
2017-08-18T04:00:48.038Z,0
2017-08-18T04:01:48.302Z,0
2017-08-18T04:02:48.378Z,0
2017-08-18T04:03:47.678Z,0
2017-08-18T04:04:47.989Z,0
2017-08-18T04:05:48.255Z,0
2017-08-18T04:06:48.240Z,0
2017-08-18T04:07:47.927Z,0
2017-08-18T04:08:47.935Z,0
2017-08-18T04:09:47.271Z,0
2017-08-18T04:10:47.565Z,0
2017-08-18T04:11:47.850Z,0
2017-08-18T04:12:47.826Z,0
2017-08-18T04:13:47.858Z,0
2017-08-18T04:14:48.142Z,0
2017-08-18T04:15:47.793Z,0
2017-08-18T04:16:48.071Z,0
2017-08-18T04:17:48.060Z,0
2017-08-18T04:18:48.043Z,0
2017-08-18T04:19:47.428Z,0
2017-08-18T04:20:48.042Z,0
2017-08-18T04:21:48.011Z,0
2017-08-18T04:22:47.989Z,0
2017-08-18T04:23:47.965Z,0
2017-08-18T04:24:47.950Z,0
2017-08-18T04:25:47.950Z,0
2017-08-18T04:26:47.340Z,0
2017-08-18T04:27:47.917Z,0
2017-08-18T04:28:46.981Z,0
2017-08-18T04:29:47.566Z,0
2017-08-18T04:30:47.563Z,0
2017-08-18T04:31:47.687Z,0
2017-08-18T04:32:47.905Z,0
2017-08-18T04:33:47.220Z,0
2017-08-18T04:34:47.303Z,0
2017-08-18T04:35:47.792Z,0
2017-08-18T04:36:47.503Z,0
2017-08-18T04:37:46.831Z,0
2017-08-18T04:38:47.464Z,0
2017-08-18T04:39:47.473Z,0
2017-08-18T04:40:47.419Z,0
2017-08-18T04:41:47.696Z,5
2017-08-18T04:42:47.064Z,5
2017-08-18T04:43:47.684Z,5
2017-08-18T04:44:47.702Z,5
2017-08-18T04:45:46.732Z,5
2017-08-18T04:46:47.650Z,5
2017-08-18T04:47:47.637Z,5
2017-08-18T04:48:46.996Z,5
2017-08-18T04:49:47.587Z,5
2017-08-18T04:50:47.270Z,5
2017-08-18T04:51:47.261Z,5
2017-08-18T04:52:47.544Z,5
2017-08-18T04:53:47.261Z,5
2017-08-18T04:54:47.520Z,5
2017-08-18T04:55:47.221Z,5
2017-08-18T04:56:46.871Z,5
2017-08-18T04:57:47.193Z,5
2017-08-18T04:58:46.228Z,5
2017-08-18T04:59:47.504Z,5
2017-08-18T05:00:47.162Z,5
2017-08-18T05:01:47.102Z,5
2017-08-18T05:02:47.184Z,5
2017-08-18T05:03:47.071Z,5
2017-08-18T05:04:47.172Z,5
2017-08-18T05:05:46.762Z,5
2017-08-18T05:06:47.162Z,5
2017-08-18T05:07:47.013Z,5
2017-08-18T05:08:46.720Z,5
2017-08-18T05:09:46.991Z,5
2017-08-18T05:10:46.671Z,5
2017-08-18T05:11:46.957Z,5
2017-08-18T05:12:46.644Z,5
2017-08-18T05:13:46.671Z,5
2017-08-18T05:14:46.612Z,5
2017-08-18T05:15:46.951Z,5
2017-08-18T05:16:47.266Z,5
2017-08-18T05:17:47.260Z,5
2017-08-18T05:18:47.164Z,5
2017-08-18T05:19:46.873Z,5
2017-08-18T05:20:46.838Z,5
2017-08-18T05:21:46.879Z,5
2017-08-18T05:22:46.503Z,5
2017-08-18T05:23:46.553Z,5
2017-08-18T05:24:46.791Z,5
2017-08-18T05:25:47.172Z,5
2017-08-18T05:26:46.756Z,5
2017-08-18T05:27:46.813Z,10
2017-08-18T05:28:46.731Z,10
2017-08-18T05:29:46.723Z,10
2017-08-18T05:30:47.002Z,10
2017-08-18T05:31:46.996Z,5
2017-08-18T05:32:46.363Z,5
2017-08-18T05:33:46.355Z,5
2017-08-18T05:34:46.343Z,5
2017-08-18T05:35:46.683Z,5
2017-08-18T05:36:46.904Z,5
2017-08-18T05:37:46.590Z,5
2017-08-18T05:38:46.274Z,5
2017-08-18T05:39:46.295Z,5
2017-08-18T05:40:46.883Z,5
2017-08-18T05:41:46.887Z,5
2017-08-18T05:42:46.506Z,5
2017-08-18T05:43:46.244Z,5
2017-08-18T05:44:46.489Z,5
2017-08-18T05:45:46.163Z,5
2017-08-18T05:46:46.746Z,5
2017-08-18T05:47:46.115Z,5
2017-08-18T05:48:46.463Z,5
2017-08-18T05:49:46.753Z,5
2017-08-18T05:50:46.390Z,10
2017-08-18T05:51:46.685Z,10
2017-08-18T05:52:45.740Z,10
2017-08-18T05:53:46.377Z,10
2017-08-18T05:54:46.057Z,10
2017-08-18T05:55:46.623Z,10
2017-08-18T05:56:46.630Z,10
2017-08-18T05:57:46.011Z,10
2017-08-18T05:58:45.961Z,10
2017-08-18T05:59:46.570Z,10
2017-08-18T06:00:46.555Z,10
2017-08-18T06:01:45.977Z,10
2017-08-18T06:02:46.220Z,10
2017-08-18T06:03:46.222Z,10
2017-08-18T06:04:46.194Z,10
2017-08-18T06:05:45.856Z,10
2017-08-18T06:06:46.157Z,15
2017-08-18T06:07:46.131Z,15
2017-08-18T06:08:45.804Z,15
2017-08-18T06:09:45.803Z,15
2017-08-18T06:10:46.432Z,15
2017-08-18T06:11:46.390Z,15
2017-08-18T06:12:45.763Z,15
2017-08-18T06:13:46.362Z,15
2017-08-18T06:14:46.376Z,15
2017-08-18T06:15:46.345Z,15
2017-08-18T06:16:45.733Z,15
2017-08-18T06:17:46.063Z,15
2017-08-18T06:18:45.782Z,15
2017-08-18T06:19:45.442Z,15
2017-08-18T06:20:45.705Z,15
2017-08-18T06:21:45.638Z,15
2017-08-18T06:22:45.643Z,15
2017-08-18T06:23:45.615Z,15
2017-08-18T06:24:45.672Z,15
2017-08-18T06:25:45.864Z,15
2017-08-18T06:26:45.280Z,15
2017-08-18T06:27:45.844Z,15
2017-08-18T06:28:45.623Z,15
2017-08-18T06:29:45.624Z,15
2017-08-18T06:30:45.563Z,15
2017-08-18T06:31:45.866Z,15
2017-08-18T06:32:45.822Z,15
2017-08-18T06:33:45.763Z,20
2017-08-18T06:34:45.775Z,20
2017-08-18T06:35:45.752Z,20
2017-08-18T06:36:45.423Z,20
2017-08-18T06:37:45.709Z,20
2017-08-18T06:38:45.687Z,20
2017-08-18T06:39:45.959Z,15
2017-08-18T06:40:45.362Z,15
2017-08-18T06:41:45.634Z,20
2017-08-18T06:42:45.918Z,20
2017-08-18T06:43:45.633Z,20
2017-08-18T06:44:45.690Z,20
2017-08-18T06:45:45.734Z,25
2017-08-18T06:46:45.571Z,25
2017-08-18T06:47:45.613Z,25
2017-08-18T06:48:45.951Z,25
2017-08-18T06:49:45.831Z,25
2017-08-18T06:50:45.521Z,25
2017-08-18T06:51:45.793Z,30
2017-08-18T06:52:45.791Z,30
2017-08-18T06:53:45.799Z,30
2017-08-18T06:54:45.456Z,30
2017-08-18T06:55:45.860Z,30
2017-08-18T06:56:45.742Z,30
2017-08-18T06:57:45.730Z,30
2017-08-18T06:58:45.799Z,30
2017-08-18T06:59:45.453Z,30
2017-08-18T07:00:45.723Z,35
2017-08-18T07:01:45.775Z,35
2017-08-18T07:02:45.022Z,40
2017-08-18T07:03:45.669Z,40
2017-08-18T07:04:45.613Z,40
2017-08-18T07:05:45.391Z,40
2017-08-18T07:06:45.273Z,45
2017-08-18T07:07:45.320Z,45
2017-08-18T07:08:45.573Z,50
2017-08-18T07:09:45.269Z,50
2017-08-18T07:10:44.612Z,50
2017-08-18T07:11:45.183Z,50
2017-08-18T07:12:44.252Z,50
2017-08-18T07:13:45.176Z,55
2017-08-18T07:14:45.142Z,60
2017-08-18T07:15:45.472Z,60
2017-08-18T07:16:45.487Z,65
2017-08-18T07:17:45.113Z,70
2017-08-18T07:18:45.106Z,75
2017-08-18T07:19:45.132Z,75
2017-08-18T07:20:45.477Z,80
2017-08-18T07:21:44.442Z,75
2017-08-18T07:22:44.731Z,70
2017-08-18T07:23:45.051Z,65
2017-08-18T07:24:45.000Z,65
2017-08-18T07:25:44.981Z,65
2017-08-18T07:26:44.703Z,65
2017-08-18T07:27:45.311Z,60
2017-08-18T07:28:45.360Z,65
2017-08-18T07:29:44.931Z,60
2017-08-18T07:30:44.391Z,60
2017-08-18T07:31:45.252Z,60
2017-08-18T07:32:44.586Z,60
2017-08-18T07:33:44.884Z,60
2017-08-18T07:34:45.160Z,60
2017-08-18T07:35:45.156Z,65
2017-08-18T07:36:44.511Z,70
2017-08-18T07:37:44.808Z,75
2017-08-18T07:38:44.498Z,75
2017-08-18T07:39:44.481Z,75
2017-08-18T07:40:44.485Z,75
2017-08-18T07:41:44.461Z,75
2017-08-18T07:42:44.440Z,80
2017-08-18T07:43:44.122Z,80
2017-08-18T07:44:44.420Z,85
2017-08-18T07:45:44.062Z,95
2017-08-18T07:46:44.664Z,110
2017-08-18T07:47:44.684Z,125
2017-08-18T07:48:44.952Z,120
2017-08-18T07:49:44.031Z,120
2017-08-18T07:50:44.620Z,110
2017-08-18T07:51:44.622Z,85
2017-08-18T07:52:44.593Z,80
2017-08-18T07:53:44.583Z,80
2017-08-18T07:54:44.875Z,90
2017-08-18T07:55:43.943Z,100
2017-08-18T07:56:44.222Z,125
2017-08-18T07:57:44.531Z,125
2017-08-18T07:58:44.519Z,125
2017-08-18T07:59:44.177Z,145
2017-08-18T08:00:44.481Z,125
2017-08-18T08:01:44.160Z,225
2017-08-18T08:02:44.746Z,120
2017-08-18T08:03:44.119Z,75
2017-08-18T08:04:44.458Z,70
2017-08-18T08:05:44.742Z,70
2017-08-18T08:06:44.389Z,70
2017-08-18T08:07:43.781Z,75
2017-08-18T08:08:44.439Z,80
2017-08-18T08:09:44.659Z,85
2017-08-18T08:10:44.641Z,85
2017-08-18T08:11:44.647Z,90
2017-08-18T08:12:44.039Z,90
2017-08-18T08:13:44.308Z,90
2017-08-18T08:14:44.338Z,90
2017-08-18T08:15:44.580Z,90
2017-08-18T08:16:44.319Z,90
2017-08-18T08:17:44.260Z,90
2017-08-18T08:18:44.260Z,85
2017-08-18T08:19:44.531Z,85
2017-08-18T08:20:44.500Z,90
2017-08-18T08:21:43.554Z,95
2017-08-18T08:22:44.500Z,80
2017-08-18T08:23:43.849Z,80
2017-08-18T08:24:44.137Z,80
2017-08-18T08:25:44.442Z,90
2017-08-18T08:26:43.810Z,100
2017-08-18T08:27:44.148Z,110
2017-08-18T08:28:43.768Z,120
2017-08-18T08:29:43.800Z,120
2017-08-18T08:30:43.764Z,120
2017-08-18T08:31:43.134Z,115
2017-08-18T08:32:43.780Z,110
2017-08-18T08:33:44.027Z,100
2017-08-18T08:34:44.350Z,95
2017-08-18T08:35:44.281Z,90
2017-08-18T08:36:43.981Z,90
2017-08-18T08:37:44.059Z,90
2017-08-18T08:38:44.260Z,85
2017-08-18T08:39:44.229Z,80
2017-08-18T08:40:43.402Z,80
2017-08-18T08:41:43.609Z,80
2017-08-18T08:42:43.651Z,85
2017-08-18T08:43:43.932Z,85
2017-08-18T08:44:43.861Z,85
2017-08-18T08:45:44.207Z,85
2017-08-18T08:46:43.843Z,90
2017-08-18T08:47:43.828Z,95
2017-08-18T08:48:43.917Z,95
2017-08-18T08:49:43.901Z,95
2017-08-18T08:50:43.157Z,100
2017-08-18T08:51:43.479Z,100
2017-08-18T08:52:44.098Z,100
2017-08-18T08:53:43.769Z,105
2017-08-18T08:54:43.726Z,110
2017-08-18T08:55:43.701Z,115
2017-08-18T08:56:43.717Z,125
2017-08-18T08:57:44.000Z,140
2017-08-18T08:58:43.688Z,155
2017-08-18T08:59:43.426Z,160
2017-08-18T09:00:43.941Z,170
2017-08-18T09:01:43.999Z,165
2017-08-18T09:02:43.669Z,160
2017-08-18T09:03:43.314Z,165
2017-08-18T09:04:43.595Z,200
2017-08-18T09:05:43.268Z,185
2017-08-18T09:06:43.559Z,200
2017-08-18T09:07:43.567Z,190
2017-08-18T09:08:43.820Z,240
2017-08-18T09:09:43.512Z,220
2017-08-18T09:10:43.517Z,300
2017-08-18T09:11:43.183Z,180
2017-08-18T09:12:43.179Z,170
2017-08-18T09:13:43.475Z,160
2017-08-18T09:14:43.434Z,160
2017-08-18T09:15:43.450Z,170
2017-08-18T09:16:43.759Z,155
2017-08-18T09:17:43.427Z,150
2017-08-18T09:18:43.701Z,150
2017-08-18T09:19:43.394Z,150
2017-08-18T09:20:43.419Z,155
2017-08-18T09:21:43.374Z,155
2017-08-18T09:22:43.368Z,160
2017-08-18T09:23:43.673Z,160
2017-08-18T09:24:43.313Z,160
2017-08-18T09:25:43.307Z,160
2017-08-18T09:26:43.364Z,160
2017-08-18T09:27:43.285Z,155
2017-08-18T09:28:43.266Z,150
2017-08-18T09:29:43.269Z,155
2017-08-18T09:30:43.551Z,165
2017-08-18T09:31:43.529Z,165
2017-08-18T09:32:43.257Z,170
2017-08-18T09:33:43.521Z,185
2017-08-18T09:34:43.185Z,155
2017-08-18T09:35:43.179Z,170
2017-08-18T09:36:43.225Z,145
2017-08-18T09:37:43.275Z,140
2017-08-18T09:38:43.438Z,175
2017-08-18T09:39:43.142Z,250
2017-08-18T09:40:43.426Z,185
2017-08-18T09:41:43.397Z,165
2017-08-18T09:42:43.394Z,155
2017-08-18T09:43:43.083Z,155
2017-08-18T09:44:43.352Z,160
2017-08-18T09:45:43.080Z,160
2017-08-18T09:46:43.050Z,165
2017-08-18T09:47:43.334Z,160
2017-08-18T09:48:43.327Z,150
2017-08-18T09:49:43.287Z,145
2017-08-18T09:50:43.307Z,145
2017-08-18T09:51:42.350Z,145
2017-08-18T09:52:43.057Z,145
2017-08-18T09:53:42.953Z,140
2017-08-18T09:54:43.292Z,140
2017-08-18T09:55:43.266Z,140
2017-08-18T09:56:43.241Z,140
2017-08-18T09:57:43.190Z,135
2017-08-18T09:58:43.202Z,135
2017-08-18T09:59:43.186Z,130
2017-08-18T10:00:43.276Z,125
2017-08-18T10:01:42.838Z,115
2017-08-18T10:02:42.035Z,115
2017-08-18T10:03:42.808Z,110
2017-08-18T10:04:42.838Z,105
2017-08-18T10:05:43.102Z,105
2017-08-18T10:06:43.077Z,100
2017-08-18T10:07:42.481Z,100
2017-08-18T10:08:42.760Z,95
2017-08-18T10:09:43.115Z,95
2017-08-18T10:10:43.088Z,95
2017-08-18T10:11:43.026Z,95
2017-08-18T10:12:42.708Z,95
2017-08-18T10:13:42.991Z,95
2017-08-18T10:14:42.699Z,95
2017-08-18T10:15:42.649Z,100
2017-08-18T10:16:42.391Z,95
2017-08-18T10:17:42.610Z,95
2017-08-18T10:18:42.629Z,90
2017-08-18T10:19:42.597Z,90
2017-08-18T10:20:42.590Z,95
2017-08-18T10:21:42.898Z,100
2017-08-18T10:22:42.907Z,105
2017-08-18T10:23:42.870Z,105
2017-08-18T10:24:42.560Z,105
2017-08-18T10:25:42.920Z,105
2017-08-18T10:26:42.840Z,105
2017-08-18T10:27:42.789Z,105
2017-08-18T10:28:42.800Z,105
2017-08-18T10:29:42.869Z,110
2017-08-18T10:30:42.789Z,105
2017-08-18T10:31:42.445Z,105
2017-08-18T10:32:42.757Z,105
2017-08-18T10:33:42.407Z,110
2017-08-18T10:34:42.689Z,115
2017-08-18T10:35:42.691Z,120
2017-08-18T10:36:42.682Z,125
2017-08-18T10:37:42.363Z,130
2017-08-18T10:38:42.344Z,130
2017-08-18T10:39:42.347Z,130
2017-08-18T10:40:42.629Z,130
2017-08-18T10:41:42.049Z,125
2017-08-18T10:42:42.308Z,120
2017-08-18T10:43:42.594Z,120
2017-08-18T10:44:42.587Z,120
2017-08-18T10:45:42.571Z,115
2017-08-18T10:46:42.249Z,110
2017-08-18T10:47:41.918Z,100
2017-08-18T10:48:42.228Z,100
2017-08-18T10:49:42.212Z,95
2017-08-18T10:50:42.504Z,85
2017-08-18T10:51:42.223Z,75
2017-08-18T10:52:42.200Z,65
2017-08-18T10:53:42.468Z,55
2017-08-18T10:54:42.469Z,55
2017-08-18T10:55:42.434Z,55
2017-08-18T10:56:42.428Z,55
2017-08-18T10:57:42.170Z,60
2017-08-18T10:58:42.420Z,65
2017-08-18T10:59:42.368Z,65
2017-08-18T11:00:41.492Z,60
2017-08-18T11:01:42.389Z,60
2017-08-18T11:02:42.023Z,60
2017-08-18T11:03:42.031Z,65
2017-08-18T11:04:42.070Z,65
2017-08-18T11:05:42.048Z,60
2017-08-18T11:06:42.019Z,60
2017-08-18T11:07:41.675Z,55
2017-08-18T11:08:42.310Z,55
2017-08-18T11:09:42.040Z,55
2017-08-18T11:10:41.350Z,55
2017-08-18T11:11:42.071Z,55
2017-08-18T11:12:41.948Z,55
2017-08-18T11:13:41.609Z,55
2017-08-18T11:14:41.585Z,60
2017-08-18T11:15:41.919Z,65
2017-08-18T11:16:42.204Z,65
2017-08-18T11:17:42.243Z,70
2017-08-18T11:18:42.209Z,70
2017-08-18T11:19:41.837Z,70
2017-08-18T11:20:41.537Z,70
2017-08-18T11:21:41.800Z,70
2017-08-18T11:22:41.463Z,70
2017-08-18T11:23:41.840Z,75
2017-08-18T11:24:42.059Z,65
2017-08-18T11:25:41.455Z,65
2017-08-18T11:26:41.427Z,65
2017-08-18T11:27:42.062Z,65
2017-08-18T11:28:42.128Z,65
2017-08-18T11:29:42.071Z,60
2017-08-18T11:30:42.030Z,60
2017-08-18T11:31:41.668Z,60
2017-08-18T11:32:41.062Z,60
2017-08-18T11:33:41.632Z,55
2017-08-18T11:34:41.960Z,50
2017-08-18T11:35:41.931Z,45
2017-08-18T11:36:41.907Z,45
2017-08-18T11:37:41.588Z,45
2017-08-18T11:38:41.926Z,45
2017-08-18T11:39:41.252Z,50
2017-08-18T11:40:41.892Z,50
2017-08-18T11:41:41.878Z,40
2017-08-18T11:42:41.846Z,40
2017-08-18T11:43:41.559Z,35
2017-08-18T11:44:41.821Z,45
2017-08-18T11:45:41.500Z,55
2017-08-18T11:46:41.487Z,55
2017-08-18T11:47:41.161Z,50
2017-08-18T11:48:41.760Z,55
2017-08-18T11:49:41.519Z,55
2017-08-18T11:50:41.742Z,45
2017-08-18T11:51:41.418Z,45
2017-08-18T11:52:41.106Z,55
2017-08-18T11:53:41.401Z,60
2017-08-18T11:54:41.070Z,60
2017-08-18T11:55:41.670Z,65
2017-08-18T11:56:41.051Z,70
2017-08-18T11:57:41.070Z,70
2017-08-18T11:58:41.070Z,65
2017-08-18T11:59:41.313Z,65
2017-08-18T12:00:41.613Z,65
2017-08-18T12:01:41.599Z,65
2017-08-18T12:02:41.284Z,65
2017-08-18T12:03:40.978Z,65
2017-08-18T12:04:41.570Z,60
2017-08-18T12:05:41.252Z,65
2017-08-18T12:06:41.226Z,65
2017-08-18T12:07:41.244Z,65
2017-08-18T12:08:40.916Z,70
2017-08-18T12:09:41.181Z,70
2017-08-18T12:10:41.161Z,75
2017-08-18T12:11:41.193Z,80
2017-08-18T12:12:40.851Z,90
2017-08-18T12:13:41.464Z,100
2017-08-18T12:14:41.136Z,95
2017-08-18T12:15:40.811Z,90
2017-08-18T12:16:40.895Z,90
2017-08-18T12:17:40.810Z,85
2017-08-18T12:18:40.822Z,75
2017-08-18T12:19:41.081Z,75
2017-08-18T12:20:40.758Z,80
2017-08-18T12:21:41.044Z,85
2017-08-18T12:22:40.728Z,95
2017-08-18T12:23:41.032Z,105
2017-08-18T12:24:40.835Z,110
2017-08-18T12:25:41.010Z,105
2017-08-18T12:26:41.431Z,95
2017-08-18T12:27:41.417Z,90
2017-08-18T12:28:40.965Z,85
2017-08-18T12:29:41.263Z,85
2017-08-18T12:30:40.964Z,85
2017-08-18T12:31:40.601Z,85
2017-08-18T12:32:40.930Z,80
2017-08-18T12:33:40.794Z,80
2017-08-18T12:34:40.884Z,75
2017-08-18T12:35:41.191Z,75
2017-08-18T12:36:40.639Z,75
2017-08-18T12:37:41.156Z,75
2017-08-18T12:38:41.226Z,75
2017-08-18T12:39:41.446Z,75
2017-08-18T12:40:41.127Z,75
2017-08-18T12:41:41.126Z,75
2017-08-18T12:42:41.096Z,80
2017-08-18T12:43:40.808Z,80
2017-08-18T12:44:41.132Z,85
2017-08-18T12:45:41.067Z,85
2017-08-18T12:46:41.041Z,85
2017-08-18T12:47:40.776Z,85
2017-08-18T12:48:41.001Z,90
2017-08-18T12:49:41.030Z,85
2017-08-18T12:50:40.500Z,85
2017-08-18T12:51:40.674Z,80
2017-08-18T12:52:40.981Z,75
2017-08-18T12:53:40.973Z,75
2017-08-18T12:54:41.032Z,75
2017-08-18T12:55:41.032Z,80
2017-08-18T12:56:40.914Z,80
2017-08-18T12:57:40.902Z,85
2017-08-18T12:58:40.930Z,85
2017-08-18T12:59:40.891Z,80
2017-08-18T13:00:40.552Z,80
2017-08-18T13:01:40.953Z,80
2017-08-18T13:02:40.519Z,80
2017-08-18T13:03:40.665Z,80
2017-08-18T13:04:40.848Z,90
2017-08-18T13:05:40.484Z,85
2017-08-18T13:06:40.780Z,85
2017-08-18T13:07:40.793Z,85
2017-08-18T13:08:40.786Z,80
2017-08-18T13:09:40.417Z,75
2017-08-18T13:10:40.745Z,75
2017-08-18T13:11:40.725Z,80
2017-08-18T13:12:40.513Z,85
2017-08-18T13:13:40.373Z,90
2017-08-18T13:14:40.369Z,95
2017-08-18T13:15:40.682Z,95
2017-08-18T13:16:40.352Z,100
2017-08-18T13:17:40.313Z,100
2017-08-18T13:18:40.313Z,105
2017-08-18T13:19:40.346Z,115
2017-08-18T13:20:40.581Z,120
2017-08-18T13:21:40.275Z,130
2017-08-18T13:22:40.324Z,135
2017-08-18T13:23:40.550Z,140
2017-08-18T13:24:40.275Z,145
2017-08-18T13:25:40.263Z,145
2017-08-18T13:26:40.203Z,145
2017-08-18T13:27:40.500Z,145
2017-08-18T13:28:40.502Z,140
2017-08-18T13:29:40.491Z,135
2017-08-18T13:30:39.866Z,130
2017-08-18T13:31:40.440Z,130
2017-08-18T13:32:40.431Z,140
2017-08-18T13:33:40.414Z,135
2017-08-18T13:34:40.391Z,135
2017-08-18T13:35:40.629Z,135
2017-08-18T13:36:40.443Z,130
2017-08-18T13:37:40.386Z,125
2017-08-18T13:38:40.380Z,120
2017-08-18T13:39:40.324Z,115
2017-08-18T13:40:40.345Z,110
2017-08-18T13:41:40.022Z,110
2017-08-18T13:42:40.314Z,110
2017-08-18T13:43:40.329Z,110
2017-08-18T13:44:39.993Z,105
2017-08-18T13:45:40.422Z,105
2017-08-18T13:46:39.962Z,100
2017-08-18T13:47:39.948Z,95
2017-08-18T13:48:39.992Z,95
2017-08-18T13:49:39.922Z,95
2017-08-18T13:50:40.184Z,95
2017-08-18T13:51:40.188Z,100
2017-08-18T13:52:39.879Z,100
2017-08-18T13:53:40.142Z,95
2017-08-18T13:54:39.837Z,95
2017-08-18T13:55:39.533Z,95
2017-08-18T13:56:39.824Z,90
2017-08-18T13:57:40.108Z,90
2017-08-18T13:58:39.797Z,85
2017-08-18T13:59:39.800Z,85
2017-08-18T14:00:39.772Z,80
2017-08-18T14:01:39.752Z,80
2017-08-18T14:02:39.735Z,80
2017-08-18T14:03:39.450Z,80
2017-08-18T14:04:40.037Z,80
2017-08-18T14:05:39.771Z,80
2017-08-18T14:06:39.405Z,75
2017-08-18T14:07:39.417Z,80
2017-08-18T14:08:39.035Z,75
2017-08-18T14:09:39.340Z,75
2017-08-18T14:10:40.012Z,70
2017-08-18T14:11:39.294Z,70
2017-08-18T14:12:39.611Z,65
2017-08-18T14:13:39.955Z,65
2017-08-18T14:14:39.905Z,65
2017-08-18T14:15:39.584Z,60
2017-08-18T14:16:39.572Z,60
2017-08-18T14:17:39.857Z,60
2017-08-18T14:18:39.872Z,60
2017-08-18T14:19:39.873Z,60
2017-08-18T14:20:39.517Z,60
2017-08-18T14:21:39.510Z,60
2017-08-18T14:22:39.844Z,55